Observation data for Snyder on 01/11/2018      Previous  Date  Next       Current Mesonet Observations  Soil Data  Daily Summary Page  Observations in Plain Language
KSYS 110600Z 24011G16KT 11/03 A2967 RMK A01 T01090034  RH  061%=      5-min Rain = 0
KSYS 110605Z 23012G17KT 11/03 A2967 RMK A01 T01080033  RH  061%=      5-min Rain = 0
KSYS 110610Z 23012G17KT 11/03 A2967 RMK A01 T01080033  RH  061%=      5-min Rain = 0
KSYS 110615Z 23011G18KT 11/03 A2967 RMK A01 T01080033  RH  061%=      5-min Rain = 0
KSYS 110620Z 23010KT 11/03 A2967 RMK A01 T01070032  RH  061%=      5-min Rain = 0
KSYS 110625Z 23011G16KT 11/03 A2967 RMK A01 T01060032  RH  061%=      5-min Rain = 0
KSYS 110630Z 23011G16KT 11/03 A2967 RMK A01 T01050032  RH  061%=      5-min Rain = 0
KSYS 110635Z 23010G15KT 11/03 A2967 RMK A01 T01050032  RH  061%=      5-min Rain = 0
KSYS 110640Z 23012G17KT 10/03 A2967 RMK A01 T01040031  RH  061%=      5-min Rain = 0
KSYS 110645Z 23012KT 10/03 A2966 RMK A01 T01040031  RH  061%=      5-min Rain = 0
KSYS 110650Z 23012KT 10/03 A2967 RMK A01 T01040031  RH  062%=      5-min Rain = 0
KSYS 110655Z 23012KT 10/03 A2967 RMK A01 T01030031  RH  062%=      5-min Rain = 0
KSYS 110700Z 23011KT 10/03 A2966 RMK A01 T01020030  RH  062%=      5-min Rain = 0
KSYS 110705Z 23011G17KT 10/03 A2966 RMK A01 T01010030  RH  062%=      5-min Rain = 0
KSYS 110710Z 23009G15KT 10/03 A2966 RMK A01 T01000030  RH  062%=      5-min Rain = 0
KSYS 110715Z 23010G15KT 10/03 A2966 RMK A01 T00990029  RH  063%=      5-min Rain = 0
KSYS 110720Z 24010KT 10/03 A2966 RMK A01 T00990029  RH  062%=      5-min Rain = 0
KSYS 110725Z 24011G17KT 10/03 A2966 RMK A01 T01000028  RH  062%=      5-min Rain = 0
KSYS 110730Z 24010G15KT 10/03 A2965 RMK A01 T01000028  RH  062%=      5-min Rain = 0
KSYS 110735Z 24011KT 10/03 A2965 RMK A01 T01000028  RH  061%=      5-min Rain = 0
KSYS 110740Z 24010G16KT 10/03 A2965 RMK A01 T00990027  RH  061%=      5-min Rain = 0
KSYS 110745Z 24011G16KT 10/03 A2965 RMK A01 T01000025  RH  060%=      5-min Rain = 0
KSYS 110750Z 24012G17KT 10/02 A2965 RMK A01 T01020024  RH  059%=      5-min Rain = 0
KSYS 110755Z 24012G17KT 10/02 A2965 RMK A01 T01030023  RH  058%=      5-min Rain = 0
KSYS 110800Z 24011G17KT 10/02 A2965 RMK A01 T01040022  RH  058%=      5-min Rain = 0
KSYS 110805Z 24011G17KT 10/02 A2965 RMK A01 T01030021  RH  058%=      5-min Rain = 0
KSYS 110810Z 24011G16KT 10/02 A2965 RMK A01 T01030021  RH  058%=      5-min Rain = 0
KSYS 110815Z 24012G18KT 10/02 A2965 RMK A01 T01020021  RH  058%=      5-min Rain = 0
KSYS 110820Z 24012KT 10/02 A2965 RMK A01 T01010020  RH  058%=      5-min Rain = 0
KSYS 110825Z 24011KT 10/02 A2965 RMK A01 T01000020  RH  058%=      5-min Rain = 0
KSYS 110830Z 24012G17KT 10/02 A2965 RMK A01 T01000020  RH  058%=      5-min Rain = 0
KSYS 110835Z 25012G20KT 10/02 A2965 RMK A01 T01020019  RH  057%=      5-min Rain = 0
KSYS 110840Z 25014G23KT 11/02 A2965 RMK A01 T01050018  RH  055%=      5-min Rain = 0
KSYS 110845Z 25013G19KT 11/02 A2965 RMK A01 T01060017  RH  055%=      5-min Rain = 0
KSYS 110850Z 24014G20KT 11/02 A2965 RMK A01 T01070017  RH  054%=      5-min Rain = 0
KSYS 110855Z 24014G19KT 11/02 A2965 RMK A01 T01060017  RH  055%=      5-min Rain = 0
KSYS 110900Z 25014G20KT 11/02 A2966 RMK A01 T01060016  RH  055%=      5-min Rain = 0
KSYS 110905Z 25015G22KT 11/02 A2966 RMK A01 T01060016  RH  054%=      5-min Rain = 0
KSYS 110910Z 25016G23KT 11/02 A2966 RMK A01 T01060016  RH  054%=      5-min Rain = 0
KSYS 110915Z 25016G22KT 11/02 A2965 RMK A01 T01070015  RH  054%=      5-min Rain = 0
KSYS 110920Z 25016G23KT 11/02 A2965 RMK A01 T01080015  RH  053%=      5-min Rain = 0
KSYS 110925Z 25015G20KT 11/02 A2965 RMK A01 T01080015  RH  053%=      5-min Rain = 0
KSYS 110930Z 25015G20KT 11/02 A2965 RMK A01 T01080015  RH  053%=      5-min Rain = 0
KSYS 110935Z 25016G25KT 11/01 A2965 RMK A01 T01090014  RH  053%=      5-min Rain = 0
KSYS 110940Z 25015G24KT 11/01 A2965 RMK A01 T01110014  RH  052%=      5-min Rain = 0
KSYS 110945Z 25016G25KT 11/01 A2965 RMK A01 T01120013  RH  051%=      5-min Rain = 0
KSYS 110950Z 26016G23KT 11/01 A2965 RMK A01 T01130013  RH  051%=      5-min Rain = 0
KSYS 110955Z 26015G23KT 11/01 A2965 RMK A01 T01120013  RH  051%=      5-min Rain = 0
KSYS 111000Z 26015G25KT 11/01 A2966 RMK A01 T01110012  RH  051%=      5-min Rain = 0
KSYS 111005Z 26015G24KT 11/01 A2966 RMK A01 T01110012  RH  051%=      5-min Rain = 0
KSYS 111010Z 27015KT 11/01 A2966 RMK A01 T01100012  RH  051%=      5-min Rain = 0
KSYS 111015Z 27015G21KT 11/01 A2965 RMK A01 T01100012  RH  052%=      5-min Rain = 0
KSYS 111020Z 27015G21KT 11/01 A2965 RMK A01 T01090012  RH  052%=      5-min Rain = 0
KSYS 111025Z 27015G21KT 11/01 A2965 RMK A01 T01080012  RH  052%=      5-min Rain = 0
KSYS 111030Z 27014G19KT 11/01 A2965 RMK A01 T01080012  RH  052%=      5-min Rain = 0
KSYS 111035Z 27015G20KT 11/01 A2965 RMK A01 T01070012  RH  052%=      5-min Rain = 0
KSYS 111040Z 27013G20KT 11/01 A2965 RMK A01 T01060012  RH  053%=      5-min Rain = 0
KSYS 111045Z 27013G20KT 10/01 A2965 RMK A01 T01040012  RH  053%=      5-min Rain = 0
KSYS 111050Z 27013G18KT 10/01 A2965 RMK A01 T01030012  RH  054%=      5-min Rain = 0
KSYS 111055Z 27013G19KT 10/01 A2966 RMK A01 T01020012  RH  054%=      5-min Rain = 0
KSYS 111100Z 27012G17KT 10/01 A2966 RMK A01 T01000012  RH  055%=      5-min Rain = 0
KSYS 111105Z 27012G18KT 10/01 A2966 RMK A01 T01000012  RH  055%=      5-min Rain = 0
KSYS 111110Z 28012KT 10/01 A2967 RMK A01 T00990012  RH  056%=      5-min Rain = 0
KSYS 111115Z 27011KT 10/01 A2967 RMK A01 T00970012  RH  056%=      5-min Rain = 0
KSYS 111120Z 28012KT 10/01 A2967 RMK A01 T00960012  RH  057%=      5-min Rain = 0
KSYS 111125Z 28012KT 10/01 A2967 RMK A01 T00950012  RH  057%=      5-min Rain = 0
KSYS 111130Z 28011KT 09/01 A2968 RMK A01 T00940013  RH  057%=      5-min Rain = 0
KSYS 111135Z 29011KT 09/01 A2968 RMK A01 T00930013  RH  058%=      5-min Rain = 0
KSYS 111140Z 28011KT 09/01 A2968 RMK A01 T00910013  RH  059%=      5-min Rain = 0
KSYS 111145Z 29011KT 09/01 A2969 RMK A01 T00890013  RH  060%=      5-min Rain = 0
KSYS 111150Z 29011KT 09/01 A2969 RMK A01 T00880014  RH  060%=      5-min Rain = 0
KSYS 111155Z 29011KT 09/01 A297 RMK A01 T00870014  RH  061%=      5-min Rain = 0
KSYS 111200Z 30011KT 09/02 A297 RMK A01 T00850015  RH  062%=      5-min Rain = 0
KSYS 111205Z 30013G18KT 09/02 A2971 RMK A01 T00860017  RH  062%=      5-min Rain = 0
KSYS 111210Z 31013KT 09/02 A2971 RMK A01 T00890018  RH  062%=      5-min Rain = 0
KSYS 111215Z 32016KT 09/02 A2971 RMK A01 T00920022  RH  062%=      5-min Rain = 0
KSYS 111220Z 32017KT 10/03 A2972 RMK A01 T00970025  RH  061%=      5-min Rain = 0
KSYS 111225Z 32017G23KT 10/03 A2972 RMK A01 T00990026  RH  061%=      5-min Rain = 0
KSYS 111230Z 32018G28KT 10/03 A2973 RMK A01 T01010027  RH  061%=      5-min Rain = 0
KSYS 111235Z 33019G26KT 10/03 A2973 RMK A01 T01010028  RH  061%=      5-min Rain = 0
KSYS 111240Z 33017G23KT 10/03 A2974 RMK A01 T00990027  RH  062%=      5-min Rain = 0
KSYS 111245Z 34019G26KT 10/03 A2974 RMK A01 T00990027  RH  061%=      5-min Rain = 0
KSYS 111250Z 34018G26KT 10/03 A2975 RMK A01 T00980027  RH  062%=      5-min Rain = 0
KSYS 111255Z 33022G33KT 10/03 A2976 RMK A01 T00960026  RH  063%=      5-min Rain = 0
KSYS 111300Z 33025G34KT 09/02 A2976 RMK A01 T00940024  RH  063%=      5-min Rain = 0
KSYS 111305Z 33028G35KT 09/02 A2976 RMK A01 T00910023  RH  063%=      5-min Rain = 0
KSYS 111310Z 34027G36KT 09/02 A2977 RMK A01 T00890022  RH  063%=      5-min Rain = 0
KSYS 111315Z 34029G38KT 09/02 A2977 RMK A01 T00860018  RH  063%=      5-min Rain = 0
KSYS 111320Z 34029G38KT 08/01 A2978 RMK A01 T00760008  RH  063%=      5-min Rain = 0
KSYS 111325Z 33027G33KT 07/01 A2979 RMK A01 T00690005  RH  064%=      5-min Rain = 0
KSYS 111330Z 33024G33KT 07/00 A298 RMK A01 T00660004  RH  065%=      5-min Rain = 0
KSYS 111335Z 34024G34KT 06/00 A2981 RMK A01 T00630001  RH  065%=      5-min Rain = 0
KSYS 111340Z 34026G34KT 06/M00 A2982 RMK A01 T00581003  RH  066%=      5-min Rain = 0
KSYS 111345Z 34025G34KT 06/M00 A2982 RMK A01 T00551004  RH  066%=      5-min Rain = 0
KSYS 111350Z 33024G31KT 06/M00 A2983 RMK A01 T00551004  RH  066%=      5-min Rain = 0
KSYS 111355Z 33026G39KT 06/M00 A2983 RMK A01 T00551004  RH  066%=      5-min Rain = 0
KSYS 111400Z 34027G36KT 06/M01 A2984 RMK A01 T00551005  RH  066%=      5-min Rain = 0
KSYS 111405Z 34026G35KT 06/M01 A2984 RMK A01 T00551005  RH  066%=      5-min Rain = 0
KSYS 111410Z 34028G36KT 06/M01 A2984 RMK A01 T00551007  RH  065%=      5-min Rain = 0
KSYS 111415Z 34028G36KT 05/M01 A2985 RMK A01 T00531009  RH  065%=      5-min Rain = 0
KSYS 111420Z 34026G35KT 05/M01 A2985 RMK A01 T00521010  RH  065%=      5-min Rain = 0
KSYS 111425Z 34026G34KT 05/M01 A2986 RMK A01 T00521010  RH  065%=      5-min Rain = 0
KSYS 111430Z 34025G31KT 05/M01 A2987 RMK A01 T00521010  RH  065%=      5-min Rain = 0
KSYS 111435Z 34024G34KT 05/M01 A2988 RMK A01 T00521009  RH  066%=      5-min Rain = 0
KSYS 111440Z 34026G34KT 05/M01 A2988 RMK A01 T00501011  RH  065%=      5-min Rain = 0
KSYS 111445Z 34026G33KT 05/M01 A2989 RMK A01 T00491014  RH  064%=      5-min Rain = 0
KSYS 111450Z 35028G35KT 05/M02 A299 RMK A01 T00471018  RH  063%=      5-min Rain = 0
KSYS 111455Z 34022G31KT 05/M02 A299 RMK A01 T00461019  RH  063%=      5-min Rain = 0
KSYS 111500Z 34022G30KT 05/M02 A2991 RMK A01 T00461020  RH  063%=      5-min Rain = 0
KSYS 111505Z 35021G28KT 05/M02 A2992 RMK A01 T00461021  RH  063%=      5-min Rain = 0
KSYS 111510Z 35021G27KT 05/M02 A2993 RMK A01 T00461020  RH  063%=      5-min Rain = 0
KSYS 111515Z 34019G26KT 05/M02 A2993 RMK A01 T00471019  RH  063%=      5-min Rain = 0
KSYS 111520Z 34022G28KT 05/M02 A2994 RMK A01 T00461021  RH  063%=      5-min Rain = 0
KSYS 111525Z 33019G25KT 05/M02 A2995 RMK A01 T00451023  RH  062%=      5-min Rain = 0
KSYS 111530Z 34024G32KT 04/M03 A2995 RMK A01 T00411028  RH  061%=      5-min Rain = 0
KSYS 111535Z 34024G31KT 04/M03 A2995 RMK A01 T00401029  RH  061%=      5-min Rain = 0
KSYS 111540Z 34026G33KT 04/M03 A2996 RMK A01 T00391031  RH  061%=      5-min Rain = 0
KSYS 111545Z 34022G31KT 04/M03 A2997 RMK A01 T00391030  RH  061%=      5-min Rain = 0
KSYS 111550Z 35023G30KT 04/M03 A2997 RMK A01 T00401029  RH  061%=      5-min Rain = 0
KSYS 111555Z 34022G29KT 04/M03 A2997 RMK A01 T00391032  RH  060%=      5-min Rain = 0
KSYS 111600Z 34023G28KT 04/M04 A2998 RMK A01 T00371035  RH  060%=      5-min Rain = 0
KSYS 111605Z 34019G28KT 04/M04 A2998 RMK A01 T00351035  RH  061%=      5-min Rain = 0
KSYS 111610Z 34020G27KT 04/M04 A2999 RMK A01 T00361035  RH  060%=      5-min Rain = 0
KSYS 111615Z 34019G25KT 04/M04 A30 RMK A01 T00361035  RH  061%=      5-min Rain = 0
KSYS 111620Z 34020G25KT 04/M04 A3001 RMK A01 T00371035  RH  060%=      5-min Rain = 0
KSYS 111625Z 35022G31KT 04/M03 A3001 RMK A01 T00381034  RH  060%=      5-min Rain = 0
KSYS 111630Z 35026G34KT 04/M03 A3001 RMK A01 T00411033  RH  059%=      5-min Rain = 0
KSYS 111635Z 35024G30KT 04/M03 A3002 RMK A01 T00431033  RH  058%=      5-min Rain = 0
KSYS 111640Z 35025G32KT 05/M03 A3003 RMK A01 T00471032  RH  057%=      5-min Rain = 0
KSYS 111645Z 34022G27KT 05/M03 A3004 RMK A01 T00531032  RH  055%=      5-min Rain = 0
KSYS 111650Z 34021G26KT 05/M03 A3004 RMK A01 T00521034  RH  055%=      5-min Rain = 0
KSYS 111655Z 34019G29KT 05/M03 A3005 RMK A01 T00501034  RH  055%=      5-min Rain = 0
KSYS 111700Z 34023G30KT 05/M03 A3005 RMK A01 T00541034  RH  054%=      5-min Rain = 0
KSYS 111705Z 34024G31KT 06/M04 A3005 RMK A01 T00561035  RH  052%=      5-min Rain = 0
KSYS 111710Z 34023G30KT 06/M04 A3005 RMK A01 T00571038  RH  051%=      5-min Rain = 0
KSYS 111715Z 34025G34KT 06/M04 A3005 RMK A01 T00581039  RH  050%=      5-min Rain = 0
KSYS 111720Z 34023G31KT 06/M04 A3005 RMK A01 T00611037  RH  050%=      5-min Rain = 0
KSYS 111725Z 35028G36KT 06/M04 A3005 RMK A01 T00631039  RH  049%=      5-min Rain = 0
KSYS 111730Z 34025G33KT 06/M04 A3005 RMK A01 T00611042  RH  048%=      5-min Rain = 0
KSYS 111735Z 34023G29KT 06/M04 A3006 RMK A01 T00621044  RH  047%=      5-min Rain = 0
KSYS 111740Z 33024G31KT 06/M05 A3006 RMK A01 T00631047  RH  046%=      5-min Rain = 0
KSYS 111745Z 33027G32KT 06/M05 A3006 RMK A01 T00621052  RH  044%=      5-min Rain = 0
KSYS 111750Z 32027G32KT 06/M06 A3006 RMK A01 T00571056  RH  045%=      5-min Rain = 0
KSYS 111755Z 33025G31KT 06/M05 A3006 RMK A01 T00561054  RH  045%=      5-min Rain = 0
KSYS 111800Z 34025G33KT 06/M06 A3007 RMK A01 T00571055  RH  045%=      5-min Rain = 0
KSYS 111805Z 34023G29KT 06/M06 A3007 RMK A01 T00591055  RH  044%=      5-min Rain = 0
KSYS 111810Z 35024G30KT 06/M05 A3007 RMK A01 T00611054  RH  044%=      5-min Rain = 0
KSYS 111815Z 34025G32KT 06/M06 A3008 RMK A01 T00641055  RH  043%=      5-min Rain = 0
KSYS 111820Z 35021G29KT 07/M06 A3008 RMK A01 T00661056  RH  042%=      5-min Rain = 0
KSYS 111825Z 34023G30KT 07/M06 A3008 RMK A01 T00711055  RH  041%=      5-min Rain = 0
KSYS 111830Z 34027G35KT 07/M06 A3008 RMK A01 T00701058  RH  040%=      5-min Rain = 0
KSYS 111835Z 34025G32KT 07/M06 A3008 RMK A01 T00711059  RH  040%=      5-min Rain = 0
KSYS 111840Z 35023G31KT 07/M06 A3008 RMK A01 T00721060  RH  039%=      5-min Rain = 0
KSYS 111845Z 34020G29KT 08/M06 A3008 RMK A01 T00761059  RH  038%=      5-min Rain = 0
KSYS 111850Z 34026G33KT 08/M06 A3008 RMK A01 T00801064  RH  036%=      5-min Rain = 0
KSYS 111855Z 35024G31KT 08/M06 A3008 RMK A01 T00761064  RH  037%=      5-min Rain = 0
KSYS 111900Z 35021G28KT 08/M06 A3008 RMK A01 T00771063  RH  037%=      5-min Rain = 0
KSYS 111905Z 34018G24KT 08/M06 A3008 RMK A01 T00791062  RH  037%=      5-min Rain = 0
KSYS 111910Z 35020G25KT 08/M06 A3008 RMK A01 T00811063  RH  036%=      5-min Rain = 0
KSYS 111915Z 35021G27KT 08/M07 A3008 RMK A01 T00831066  RH  034%=      5-min Rain = 0
KSYS 111920Z 34020G26KT 09/M07 A3009 RMK A01 T00851068  RH  034%=      5-min Rain = 0
KSYS 111925Z 34021G32KT 09/M07 A3009 RMK A01 T00891071  RH  032%=      5-min Rain = 0
KSYS 111930Z 35021G29KT 09/M08 A3009 RMK A01 T00911077  RH  030%=      5-min Rain = 0
KSYS 111935Z 35024G30KT 09/M08 A3009 RMK A01 T00891079  RH  030%=      5-min Rain = 0
KSYS 111940Z 34022G29KT 09/M08 A3009 RMK A01 T00891079  RH  030%=      5-min Rain = 0
KSYS 111945Z 35022G29KT 09/M08 A3009 RMK A01 T00911079  RH  030%=      5-min Rain = 0
KSYS 111950Z 35022G27KT 09/M08 A301 RMK A01 T00941079  RH  029%=      5-min Rain = 0
KSYS 111955Z 35023G32KT 09/M08 A301 RMK A01 T00931082  RH  029%=      5-min Rain = 0
KSYS 112000Z 35022G28KT 10/M08 A301 RMK A01 T00951084  RH  028%=      5-min Rain = 0
KSYS 112005Z 35021G30KT 10/M09 A301 RMK A01 T00961085  RH  028%=      5-min Rain = 0
KSYS 112010Z 35025G34KT 10/M09 A301 RMK A01 T00971090  RH  026%=      5-min Rain = 0
KSYS 112015Z 35028G37KT 10/M10 A301 RMK A01 T00971098  RH  025%=      5-min Rain = 0
KSYS 112020Z 35026G35KT 09/M10 A301 RMK A01 T00931098  RH  025%=      5-min Rain = 0
KSYS 112025Z 35024G32KT 09/M10 A301 RMK A01 T00931096  RH  026%=      5-min Rain = 0
KSYS 112030Z 34026G34KT 10/M10 A3011 RMK A01 T00951096  RH  025%=      5-min Rain = 0
KSYS 112035Z 35020G30KT 10/M09 A3011 RMK A01 T00991093  RH  025%=      5-min Rain = 0
KSYS 112040Z 34024G32KT 10/M10 A3011 RMK A01 T00991097  RH  024%=      5-min Rain = 0
KSYS 112045Z 36023G32KT 10/M10 A3011 RMK A01 T01011101  RH  023%=      5-min Rain = 0
KSYS 112050Z 35023G30KT 10/M10 A3011 RMK A01 T01031100  RH  023%=      5-min Rain = 0
KSYS 112055Z 35024G31KT 10/M10 A3011 RMK A01 T01031101  RH  023%=      5-min Rain = 0
KSYS 112100Z 34027G37KT 10/M11 A3011 RMK A01 T01041106  RH  022%=      5-min Rain = 0
KSYS 112105Z 34026G36KT 10/M11 A3011 RMK A01 T01011107  RH  022%=      5-min Rain = 0
KSYS 112110Z 35027G37KT 10/M11 A3012 RMK A01 T01001111  RH  022%=      5-min Rain = 0
KSYS 112115Z 35025G34KT 10/M11 A3012 RMK A01 T00961107  RH  023%=      5-min Rain = 0
KSYS 112120Z 34028G35KT 09/M11 A3012 RMK A01 T00941108  RH  023%=      5-min Rain = 0
KSYS 112125Z 35024G34KT 10/M11 A3013 RMK A01 T00951107  RH  023%=      5-min Rain = 0
KSYS 112130Z 35025G32KT 09/M11 A3013 RMK A01 T00931108  RH  023%=      5-min Rain = 0
KSYS 112135Z 35023G31KT 09/M11 A3013 RMK A01 T00931106  RH  024%=      5-min Rain = 0
KSYS 112140Z 35022G28KT 09/M11 A3012 RMK A01 T00941106  RH  023%=      5-min Rain = 0
KSYS 112145Z 35020G28KT 10/M11 A3013 RMK A01 T00981106  RH  023%=      5-min Rain = 0
KSYS 112150Z 35023G35KT 10/M11 A3013 RMK A01 T00981108  RH  023%=      5-min Rain = 0
KSYS 112155Z 35025G33KT 10/M11 A3014 RMK A01 T00961108  RH  023%=      5-min Rain = 0
KSYS 112200Z 35023G32KT 10/M11 A3014 RMK A01 T00951107  RH  023%=      5-min Rain = 0
KSYS 112205Z 35021G28KT 10/M11 A3014 RMK A01 T00961106  RH  023%=      5-min Rain = 0
KSYS 112210Z 36020G26KT 10/M11 A3015 RMK A01 T00961105  RH  023%=      5-min Rain = 0
KSYS 112215Z 35021G29KT 10/M11 A3015 RMK A01 T00951105  RH  023%=      5-min Rain = 0
KSYS 112220Z 35017G24KT 10/M11 A3016 RMK A01 T00961105  RH  023%=      5-min Rain = 0
KSYS 112225Z 35020G27KT 10/M11 A3016 RMK A01 T00961106  RH  023%=      5-min Rain = 0
KSYS 112230Z 35020G27KT 10/M11 A3017 RMK A01 T00951105  RH  023%=      5-min Rain = 0
KSYS 112235Z 35018G25KT 10/M11 A3017 RMK A01 T00951105  RH  024%=      5-min Rain = 0
KSYS 112240Z 35019G25KT 10/M11 A3017 RMK A01 T00951105  RH  023%=      5-min Rain = 0
KSYS 112245Z 34022G30KT 09/M11 A3017 RMK A01 T00941109  RH  023%=      5-min Rain = 0
KSYS 112250Z 35018G24KT 09/M11 A3018 RMK A01 T00921110  RH  023%=      5-min Rain = 0
KSYS 112255Z 36018G24KT 09/M11 A3018 RMK A01 T00891109  RH  024%=      5-min Rain = 0
KSYS 112300Z 35018G24KT 09/M11 A3018 RMK A01 T00871108  RH  024%=      5-min Rain = 0
KSYS 112305Z 35018G23KT 09/M11 A3019 RMK A01 T00871107  RH  025%=      5-min Rain = 0
KSYS 112310Z 35019G26KT 09/M11 A3019 RMK A01 T00851106  RH  025%=      5-min Rain = 0
KSYS 112315Z 35017G26KT 08/M11 A3019 RMK A01 T00841108  RH  025%=      5-min Rain = 0
KSYS 112320Z 35020G26KT 08/M11 A3019 RMK A01 T00831109  RH  025%=      5-min Rain = 0
KSYS 112325Z 35020G25KT 08/M11 A3019 RMK A01 T00801109  RH  025%=      5-min Rain = 0
KSYS 112330Z 35016G22KT 08/M11 A302 RMK A01 T00781108  RH  026%=      5-min Rain = 0
KSYS 112335Z 35014KT 08/M11 A302 RMK A01 T00771108  RH  026%=      5-min Rain = 0
KSYS 112340Z 35014G20KT 08/M11 A302 RMK A01 T00751107  RH  026%=      5-min Rain = 0
KSYS 112345Z 35014G19KT 07/M11 A3021 RMK A01 T00731107  RH  027%=      5-min Rain = 0
KSYS 112350Z 35012KT 07/M11 A3021 RMK A01 T00701106  RH  028%=      5-min Rain = 0
KSYS 112355Z 36011KT 07/M11 A3021 RMK A01 T00681106  RH  028%=      5-min Rain = 0
KSYS 120000Z 35011KT 07/M11 A3021 RMK A01 T00651106  RH  029%=      5-min Rain = 0
KSYS 120005Z 35010KT 06/M11 A3022 RMK A01 T00621106  RH  029%=      5-min Rain = 0
KSYS 120010Z 34010KT 06/M11 A3022 RMK A01 T00591105  RH  030%=      5-min Rain = 0
KSYS 120015Z 34011G19KT 06/M11 A3023 RMK A01 T00561105  RH  031%=      5-min Rain = 0
KSYS 120020Z 34014G22KT 06/M11 A3023 RMK A01 T00561107  RH  030%=      5-min Rain = 0
KSYS 120025Z 35016G21KT 06/M11 A3023 RMK A01 T00581111  RH  029%=      5-min Rain = 0
KSYS 120030Z 35015KT 06/M11 A3023 RMK A01 T00581114  RH  028%=      5-min Rain = 0
KSYS 120035Z 35013G18KT 06/M12 A3023 RMK A01 T00571115  RH  028%=      5-min Rain = 0
KSYS 120040Z 00015KT 06/M11 A3023 RMK A01 T00551114  RH  029%=      5-min Rain = 0
KSYS 120045Z 36014KT 05/M11 A3024 RMK A01 T00541113  RH  029%=      5-min Rain = 0
KSYS 120050Z 36012KT 05/M11 A3024 RMK A01 T00531112  RH  030%=      5-min Rain = 0
KSYS 120055Z 00011KT 05/M11 A3024 RMK A01 T00501112  RH  030%=      5-min Rain = 0
KSYS 120100Z 36010KT 05/M11 A3024 RMK A01 T00471112  RH  031%=      5-min Rain = 0
KSYS 120105Z 00010KT 04/M11 A3024 RMK A01 T00441112  RH  031%=      5-min Rain = 0
KSYS 120110Z 00009KT 04/M11 A3024 RMK A01 T00421112  RH  032%=      5-min Rain = 0
KSYS 120115Z 00009KT 04/M11 A3024 RMK A01 T00401113  RH  032%=      5-min Rain = 0
KSYS 120120Z 00009KT 04/M11 A3024 RMK A01 T00381113  RH  033%=      5-min Rain = 0
KSYS 120125Z 00008KT 04/M11 A3024 RMK A01 T00371113  RH  033%=      5-min Rain = 0
KSYS 120130Z 36008KT 04/M11 A3024 RMK A01 T00351113  RH  033%=      5-min Rain = 0
KSYS 120135Z 35008KT 03/M11 A3025 RMK A01 T00321113  RH  034%=      5-min Rain = 0
KSYS 120140Z 35008KT 03/M11 A3025 RMK A01 T00291113  RH  035%=      5-min Rain = 0
KSYS 120145Z 36008KT 03/M11 A3025 RMK A01 T00261112  RH  036%=      5-min Rain = 0
KSYS 120150Z 35008KT 03/M11 A3025 RMK A01 T00251112  RH  036%=      5-min Rain = 0
KSYS 120155Z 36009KT 03/M11 A3026 RMK A01 T00251111  RH  036%=      5-min Rain = 0
KSYS 120200Z 36009KT 03/M11 A3026 RMK A01 T00261111  RH  036%=      5-min Rain = 0
KSYS 120205Z 36010KT 03/M11 A3026 RMK A01 T00251110  RH  037%=      5-min Rain = 0
KSYS 120210Z 00010KT 03/M11 A3026 RMK A01 T00251110  RH  037%=      5-min Rain = 0
KSYS 120215Z 00010KT 02/M11 A3026 RMK A01 T00241109  RH  037%=      5-min Rain = 0
KSYS 120220Z 00010KT 02/M11 A3026 RMK A01 T00231109  RH  037%=      5-min Rain = 0
KSYS 120225Z 36011KT 02/M11 A3027 RMK A01 T00231108  RH  038%=      5-min Rain = 0
KSYS 120230Z 36010KT 02/M11 A3027 RMK A01 T00231107  RH  038%=      5-min Rain = 0
KSYS 120235Z 00010KT 02/M11 A3027 RMK A01 T00231106  RH  038%=      5-min Rain = 0
KSYS 120240Z 00010KT 02/M11 A3027 RMK A01 T00221106  RH  039%=      5-min Rain = 0
KSYS 120245Z 00010KT 02/M11 A3027 RMK A01 T00211105  RH  039%=      5-min Rain = 0
KSYS 120250Z 00010KT 02/M10 A3027 RMK A01 T00211104  RH  039%=      5-min Rain = 0
KSYS 120255Z 00009KT 02/M10 A3027 RMK A01 T00211104  RH  040%=      5-min Rain = 0
KSYS 120300Z 36008KT 02/M10 A3027 RMK A01 T00191104  RH  040%=      5-min Rain = 0
KSYS 120305Z 36007KT 02/M10 A3028 RMK A01 T00181103  RH  041%=      5-min Rain = 0
KSYS 120310Z 36007KT 02/M10 A3028 RMK A01 T00161103  RH  041%=      5-min Rain = 0
KSYS 120315Z 36008KT 01/M10 A3027 RMK A01 T00131103  RH  042%=      5-min Rain = 0
KSYS 120320Z 01009KT 01/M10 A3027 RMK A01 T00131102  RH  043%=      5-min Rain = 0
KSYS 120325Z 01009KT 01/M10 A3027 RMK A01 T00141101  RH  043%=      5-min Rain = 0
KSYS 120330Z 01009KT 01/M10 A3027 RMK A01 T00141100  RH  043%=      5-min Rain = 0
KSYS 120335Z 01009KT 02/M10 A3027 RMK A01 T00171097  RH  043%=      5-min Rain = 0
KSYS 120340Z 01009KT 02/M10 A3027 RMK A01 T00231096  RH  042%=      5-min Rain = 0
KSYS 120345Z 02009KT 03/M10 A3027 RMK A01 T00261096  RH  041%=      5-min Rain = 0
KSYS 120350Z 02009KT 03/M10 A3028 RMK A01 T00291095  RH  040%=      5-min Rain = 0
KSYS 120355Z 01011KT 03/M09 A3028 RMK A01 T00311094  RH  040%=      5-min Rain = 0
KSYS 120400Z 01011KT 03/M09 A3028 RMK A01 T00321094  RH  040%=      5-min Rain = 0
KSYS 120405Z 01012KT 03/M09 A3028 RMK A01 T00311094  RH  040%=      5-min Rain = 0
KSYS 120410Z 01012KT 03/M09 A3027 RMK A01 T00301094  RH  040%=      5-min Rain = 0
KSYS 120415Z 02012KT 03/M09 A3027 RMK A01 T00301094  RH  040%=      5-min Rain = 0
KSYS 120420Z 02010KT 03/M09 A3027 RMK A01 T00291094  RH  040%=      5-min Rain = 0
KSYS 120425Z 02010KT 03/M09 A3027 RMK A01 T00271094  RH  041%=      5-min Rain = 0
KSYS 120430Z 02011KT 03/M09 A3027 RMK A01 T00251094  RH  042%=      5-min Rain = 0
KSYS 120435Z 02010KT 02/M09 A3028 RMK A01 T00231094  RH  042%=      5-min Rain = 0
KSYS 120440Z 02010KT 02/M09 A3028 RMK A01 T00231093  RH  043%=      5-min Rain = 0
KSYS 120445Z 02009KT 02/M09 A3028 RMK A01 T00201093  RH  043%=      5-min Rain = 0
KSYS 120450Z 02008KT 02/M09 A3028 RMK A01 T00181093  RH  044%=      5-min Rain = 0
KSYS 120455Z 02009KT 02/M09 A3028 RMK A01 T00161093  RH  045%=      5-min Rain = 0
KSYS 120500Z 02008KT 01/M09 A3028 RMK A01 T00141093  RH  045%=      5-min Rain = 0
KSYS 120505Z 03009KT 01/M09 A3028 RMK A01 T00121093  RH  046%=      5-min Rain = 0
KSYS 120510Z 03009KT 01/M09 A3028 RMK A01 T00101093  RH  047%=      5-min Rain = 0
KSYS 120515Z 02009KT 01/M09 A3028 RMK A01 T00081093  RH  047%=      5-min Rain = 0
KSYS 120520Z 02008KT 01/M09 A3028 RMK A01 T00071092  RH  048%=      5-min Rain = 0
KSYS 120525Z 02009KT 01/M09 A3029 RMK A01 T00071092  RH  048%=      5-min Rain = 0
KSYS 120530Z 02008KT 01/M09 A3029 RMK A01 T00061092  RH  048%=      5-min Rain = 0
KSYS 120535Z 01008KT 01/M09 A3029 RMK A01 T00051091  RH  049%=      5-min Rain = 0
KSYS 120540Z 00007KT 00/M09 A3029 RMK A01 T00041091  RH  049%=      5-min Rain = 0
KSYS 120545Z 01007KT 00/M09 A3028 RMK A01 T00041091  RH  050%=      5-min Rain = 0
KSYS 120550Z 01007KT 00/M09 A3028 RMK A01 T00021091  RH  050%=      5-min Rain = 0
KSYS 120555Z 01006KT 00/09 A3028 RMK A01 T00000-92  RH  051%=      5-min Rain = 0

Page generated in 0.0146 seconds.